Time;durP1;ratioP1;P1;durP2;ratioP2;P2;SDS_P1;SDS_P2;PMS_P1;PMS_P2;Temp;Humidity;BMP_temperature;BMP_pressure;BME280_temperature;BME280_humidity;BME280_pressure;Samples;Min_cycle;Max_cycle;Signal;HPM_P1;HPM_P2
2021/10/12 04:07:30;;;;;;;78.60;35.78;;;;;;;6.18;100.00;99569.88;5110948;27;20391;-83
2021/10/12 04:09:57;;;;;;;88.25;38.53;;;;;;;6.22;100.00;99578.53;5111158;28;20429;-82
2021/10/12 04:12:24;;;;;;;92.05;41.25;;;;;;;6.32;100.00;99574.81;5111094;28;20487;-81
2021/10/12 04:14:50;;;;;;;94.10;39.88;;;;;;;6.36;100.00;99564.56;5101610;28;20442;-81
2021/10/12 04:17:17;;;;;;;88.57;36.30;;;;;;;6.46;100.00;99576.19;5091049;28;20159;-82
2021/10/12 04:19:44;;;;;;;78.28;36.72;;;;;;;6.36;100.00;99559.16;5090582;28;20690;-81
2021/10/12 04:22:11;;;;;;;83.05;38.38;;;;;;;6.45;100.00;99549.31;5090511;28;20048;-82
2021/10/12 04:24:40;;;;;;;73.32;35.72;;;;;;;6.53;100.00;99568.31;5090215;28;20492;-82
2021/10/12 04:27:07;;;;;;;74.60;33.78;;;;;;;6.48;100.00;99554.44;5090269;28;20109;-82
2021/10/12 04:29:34;;;;;;;62.03;33.35;;;;;;;6.61;100.00;99560.34;5090856;28;20049;-82
2021/10/12 04:32:06;;;;;;;69.70;34.25;;;;;;;6.58;100.00;99549.84;5090026;28;20044;-83
2021/10/12 04:34:34;;;;;;;67.80;33.35;;;;;;;6.60;100.00;99534.31;5090131;28;20127;-82
2021/10/12 04:37:01;;;;;;;67.03;32.10;;;;;;;6.61;100.00;99549.53;5089827;28;20416;-82
2021/10/12 04:39:29;;;;;;;75.60;33.78;;;;;;;6.68;100.00;99550.59;5090199;28;20055;-82
2021/10/12 04:42:01;;;;;;;66.32;31.92;;;;;;;6.66;100.00;99543.69;5090306;28;20048;-82
2021/10/12 04:44:32;;;;;;;60.53;30.52;;;;;;;6.65;100.00;99536.56;5089988;28;20044;-83
2021/10/12 04:46:59;;;;;;;65.40;31.00;;;;;;;6.72;100.00;99552.03;5090201;28;20475;-83
2021/10/12 04:49:26;;;;;;;61.95;29.67;;;;;;;6.77;100.00;99550.72;5090475;28;20098;-83
2021/10/12 04:51:53;;;;;;;66.70;31.52;;;;;;;6.69;100.00;99543.38;5089890;28;20044;-81
2021/10/12 04:54:20;;;;;;;63.33;31.33;;;;;;;6.83;100.00;99558.22;5089738;28;20056;-82
2021/10/12 04:56:47;;;;;;;56.25;27.20;;;;;;;6.84;100.00;99551.81;5090077;28;20059;-82
2021/10/12 04:59:16;;;;;;;58.47;27.65;;;;;;;6.89;100.00;99550.38;5089875;28;20044;-81
2021/10/12 05:01:46;;;;;;;61.58;30.63;;;;;;;7.02;100.00;99558.09;5090001;28;20040;-82
2021/10/12 05:04:14;;;;;;;59.50;29.60;;;;;;;6.90;100.00;99556.63;5089916;28;20099;-82
2021/10/12 05:06:46;;;;;;;64.00;30.92;;;;;;;6.83;100.00;99555.53;5089124;28;20062;-81
2021/10/12 05:09:13;;;;;;;59.30;30.40;;;;;;;6.83;100.00;99555.53;5090327;28;20056;-81
2021/10/12 05:11:40;;;;;;;65.07;30.10;;;;;;;6.73;100.00;99537.53;5089231;28;20075;-81
2021/10/12 05:14:07;;;;;;;58.03;30.92;;;;;;;6.81;100.00;99550.28;5083987;28;20048;-81
2021/10/12 05:16:36;;;;;;;61.70;30.38;;;;;;;6.82;100.00;99549.28;5087076;28;20142;-81
2021/10/12 05:19:03;;;;;;;56.90;29.63;;;;;;;6.93;100.00;99541.97;5075996;28;20044;-81
2021/10/12 05:21:31;;;;;;;55.78;29.17;;;;;;;6.88;100.00;99543.25;5075557;28;20373;-81
2021/10/12 05:24:03;;;;;;;59.00;30.15;;;;;;;6.98;100.00;99545.06;5076340;28;20055;-81
2021/10/12 05:26:32;;;;;;;58.25;28.80;;;;;;;6.91;100.00;99534.84;5075406;28;20040;-82
2021/10/12 05:29:02;;;;;;;61.25;30.15;;;;;;;6.99;100.00;99542.19;5076015;28;20131;-81
2021/10/12 05:31:32;;;;;;;56.47;28.77;;;;;;;6.92;100.00;99532.97;5076080;28;20053;-81
2021/10/12 05:34:04;;;;;;;53.35;28.50;;;;;;;6.94;100.00;99517.47;5076239;28;20060;-81
2021/10/12 05:36:33;;;;;;;59.47;28.83;;;;;;;7.07;100.00;99531.44;5075183;28;20051;-81
2021/10/12 05:39:02;;;;;;;54.72;27.15;;;;;;;6.94;100.00;99531.00;5075864;28;20040;-82
2021/10/12 05:41:29;;;;;;;49.22;26.40;;;;;;;6.90;100.00;99524.19;5075107;28;20076;-81
2021/10/12 05:43:55;;;;;;;55.30;26.30;;;;;;;6.87;100.00;99519.09;5076071;28;20381;-82
2021/10/12 05:46:22;;;;;;;52.85;26.73;;;;;;;6.88;100.00;99515.38;5075428;28;20396;-81
2021/10/12 05:48:54;;;;;;;54.90;26.92;;;;;;;6.87;100.00;99517.22;5075248;28;20485;-81
2021/10/12 05:51:25;;;;;;;54.10;25.23;;;;;;;6.94;100.00;99520.19;5075276;28;20048;-80
2021/10/12 05:53:57;;;;;;;50.88;26.25;;;;;;;7.00;100.00;99529.50;5075532;28;20052;-81
2021/10/12 05:56:26;;;;;;;54.03;25.88;;;;;;;7.02;100.00;99522.13;5074963;28;20051;-81
2021/10/12 05:58:55;;;;;;;55.33;27.08;;;;;;;6.91;100.00;99502.41;5075698;28;20480;-82
2021/10/12 06:01:24;;;;;;;53.42;27.85;;;;;;;7.07;100.00;99519.78;5075250;28;20072;-80
2021/10/12 06:03:54;;;;;;;56.80;27.95;;;;;;;6.99;100.00;99504.34;5075410;28;20044;-79
2021/10/12 06:06:23;;;;;;;58.92;27.02;;;;;;;7.09;100.00;99517.78;5074794;28;20044;-79
2021/10/12 06:08:50;;;;;;;61.42;27.80;;;;;;;7.14;100.00;99518.19;5075287;28;20041;-80
2021/10/12 06:11:16;;;;;;;64.45;27.88;;;;;;;7.17;100.00;99525.97;5075272;28;20045;-80
2021/10/12 08:35:13;;;;;;;63.33;27.73;;;;;;;8.34;100.00;99491.47;5130971;27;20378;-79
2021/10/12 08:37:40;;;;;;;56.25;28.67;;;;;;;8.46;100.00;99484.78;5131280;28;20050;-80
2021/10/12 08:40:12;;;;;;;63.15;30.45;;;;;;;8.64;100.00;99484.66;5131912;28;20062;-80
2021/10/12 08:42:45;;;;;;;63.35;28.80;;;;;;;8.78;100.00;99479.63;5131601;28;20054;-80
2021/10/12 08:45:12;;;;;;;49.00;25.48;;;;;;;8.78;100.00;99485.03;5130449;27;20071;-80
2021/10/12 08:47:40;;;;;;;49.70;25.95;;;;;;;8.66;100.00;99479.06;5131111;28;20447;-80
2021/10/12 08:50:10;;;;;;;58.83;25.13;;;;;;;8.76;100.00;99471.66;5123385;28;20055;-80
2021/10/12 08:52:39;;;;;;;55.40;25.27;;;;;;;8.77;100.00;99478.75;5125022;28;20047;-80
2021/10/12 08:55:06;;;;;;;41.20;22.88;;;;;;;8.75;100.00;99480.78;5131022;28;20040;-80
2021/10/12 08:57:36;;;;;;;50.45;23.77;;;;;;;8.78;100.00;99471.50;5131309;28;20047;-80
2021/10/12 09:00:07;;;;;;;44.15;20.77;;;;;;;8.82;100.00;99475.53;5130900;28;20521;-80
2021/10/12 09:02:34;;;;;;;36.65;20.85;;;;;;;8.90;100.00;99474.72;5129969;27;20082;-80
2021/10/12 09:05:01;;;;;;;50.53;21.98;;;;;;;8.93;100.00;99460.84;5127094;27;20047;-80
2021/10/12 09:07:29;;;;;;;45.63;21.23;;;;;;;8.87;100.00;99470.50;5124220;27;20063;-80
2021/10/12 09:09:59;;;;;;;40.60;19.77;;;;;;;8.88;100.00;99474.03;5129700;28;20053;-80
2021/10/12 09:12:42;;;;;;;;;;;;;;;9.00;100.00;99481.69;5130379;27;20379;-80
2021/10/12 09:15:10;;;;;;;37.08;18.60;;;;;;;8.94;100.00;99478.78;5108873;28;19930;-80
2021/10/12 09:17:38;;;;;;;43.35;20.60;;;;;;;8.88;100.00;99455.06;5113683;28;20453;-80
2021/10/12 09:20:29;;;;;;;38.97;18.60;;;;;;;8.94;100.00;99455.25;5129800;28;20051;-80
2021/10/12 09:23:11;;;;;;;39.67;18.30;;;;;;;9.02;100.00;99460.69;5119065;27;20108;-80
2021/10/12 09:25:41;;;;;;;36.30;18.35;;;;;;;9.00;100.00;99438.31;5129203;28;20058;-80
2021/10/12 09:28:22;;;;;;;32.13;17.33;;;;;;;9.12;100.00;99452.41;5129466;27;20513;-80
2021/10/12 09:30:49;;;;;;;33.55;18.48;;;;;;;9.27;100.00;99449.00;5129346;27;20134;-80
2021/10/12 09:33:17;;;;;;;34.42;16.52;;;;;;;9.23;100.00;99431.34;5127305;27;20047;-80
2021/10/12 09:35:43;;;;;;;31.50;14.50;;;;;;;9.34;100.00;99422.88;5108881;28;20051;-80
2021/10/12 09:38:12;;;;;;;22.45;13.07;;;;;;;9.56;100.00;99434.91;5108085;28;20070;-80
2021/10/12 09:40:42;;;;;;;21.50;11.70;;;;;;;9.42;100.00;99422.84;5122146;28;20496;-80
2021/10/12 09:43:11;;;;;;;23.38;11.90;;;;;;;9.29;100.00;99431.53;5129469;27;20048;-80
2021/10/12 09:45:40;;;;;;;25.38;13.13;;;;;;;9.15;100.00;99418.63;5110958;27;20051;-80
2021/10/12 09:48:28;;;;;;;24.83;13.57;;;;;;;9.23;100.00;99426.78;5095117;28;20067;-81
2021/10/12 09:51:09;;;;;;;26.10;12.32;;;;;;;9.24;100.00;99431.19;5098103;27;20059;-81
2021/10/12 09:53:36;;;;;;;24.98;12.55;;;;;;;9.27;100.00;99428.13;5102393;28;20079;-81
2021/10/12 09:56:05;;;;;;;40.13;14.23;;;;;;;9.23;100.00;99420.50;5094546;28;20480;-80
2021/10/12 09:58:33;;;;;;;28.85;14.60;;;;;;;9.26;100.00;99410.19;5102713;28;20104;-80
2021/10/12 10:01:02;;;;;;;22.15;13.00;;;;;;;9.30;100.00;99399.81;5115193;28;20055;-81
2021/10/12 10:03:29;;;;;;;28.45;13.05;;;;;;;9.50;100.00;99422.00;5101849;28;20043;-81
2021/10/12 10:05:59;;;;;;;27.00;15.15;;;;;;;9.62;100.00;99408.91;5094527;28;20533;-81
2021/10/12 10:08:29;;;;;;;28.42;14.57;;;;;;;9.79;100.00;99407.03;5095191;28;20101;-81
2021/10/12 10:10:57;;;;;;;23.80;13.02;;;;;;;9.90;100.00;99407.47;5115235;28;20147;-81
2021/10/12 10:13:27;;;;;;;34.20;14.02;;;;;;;10.00;100.00;99403.75;5106759;28;20134;-81
2021/10/12 10:15:54;;;;;;;30.25;13.65;;;;;;;10.07;100.00;99410.16;5094193;28;20047;-81
2021/10/12 10:18:22;;;;;;;29.52;15.80;;;;;;;10.12;100.00;99387.88;5095125;28;20048;-80
2021/10/12 10:20:51;;;;;;;21.58;12.25;;;;;;;10.10;100.00;99388.94;5094491;28;20091;-80
2021/10/12 10:23:56;;;;;;;21.55;12.68;;;;;;;10.30;100.00;99387.63;5094689;28;20094;-81
2021/10/12 10:26:28;;;;;;;24.95;11.60;;;;;;;10.38;100.00;99393.06;5106133;28;20059;-81
2021/10/12 10:29:24;;;;;;;18.88;11.00;;;;;;;10.26;100.00;99377.13;5094314;28;20051;-81
2021/10/12 10:31:53;;;;;;;18.35;10.18;;;;;;;10.22;100.00;99362.22;5094184;28;20052;-81
2021/10/12 10:34:44;;;;;;;24.35;11.93;;;;;;;10.27;100.00;99375.28;5093923;28;20043;-81
2021/10/12 10:37:29;;;;;;;17.58;9.65;;;;;;;10.22;100.00;99375.81;5093854;28;20048;-81
2021/10/12 10:40:27;;;;;;;21.48;9.48;;;;;;;10.25;100.00;99378.16;5097487;27;20498;-81
2021/10/12 10:42:58;;;;;;;19.35;9.35;;;;;;;10.18;100.00;99374.47;5114427;28;20208;-81
2021/10/12 10:45:48;;;;;;;20.30;9.75;;;;;;;10.05;100.00;99352.44;5093762;28;20044;-81
2021/10/12 10:48:17;;;;;;;14.07;8.68;;;;;;;10.29;100.00;99373.22;5094138;28;20055;-81
2021/10/12 10:50:44;;;;;;;24.02;9.23;;;;;;;10.33;100.00;99368.25;5095759;28;20062;-80
2021/10/12 10:53:12;;;;;;;16.10;8.15;;;;;;;10.35;100.00;99375.25;5100906;28;20090;-81
2021/10/12 10:55:44;;;;;;;20.23;10.25;;;;;;;10.29;100.00;99362.34;5093509;28;20055;-80
2021/10/12 10:58:15;;;;;;;17.17;8.40;;;;;;;10.23;100.00;99361.19;5093469;27;20048;-81
2021/10/12 11:00:51;;;;;;;15.43;7.53;;;;;;;10.17;100.00;99345.59;5093630;28;20048;-80
2021/10/12 11:03:36;;;;;;;18.10;8.98;;;;;;;10.25;100.00;99359.16;5093980;28;20048;-80
2021/10/12 11:06:05;;;;;;;13.82;8.13;;;;;;;10.35;100.00;99352.66;5093222;28;20052;-80
2021/10/12 11:08:33;;;;;;;18.00;8.00;;;;;;;10.47;100.00;99345.78;5099779;28;20089;-81
2021/10/12 11:11:03;;;;;;;15.27;7.35;;;;;;;10.45;100.00;99326.13;5114174;28;20044;-81
2021/10/12 11:13:33;;;;;;;14.02;6.97;;;;;;;10.73;100.00;99334.53;5113803;28;20071;-80
2021/10/12 11:16:03;;;;;;;17.38;7.47;;;;;;;10.77;100.00;99340.50;5093513;28;20047;-81
2021/10/12 11:18:30;;;;;;;16.15;6.53;;;;;;;10.69;100.00;99340.53;5093187;28;20339;-80
2021/10/12 11:20:59;;;;;;;20.65;6.60;;;;;;;10.60;100.00;99331.63;5093727;28;20056;-81
2021/10/12 11:23:29;;;;;;;23.83;7.38;;;;;;;10.60;100.00;99327.00;5093281;28;20545;-80
2021/10/12 11:26:01;;;;;;;16.25;8.00;;;;;;;10.65;100.00;99312.03;5104520;28;20583;-81
2021/10/12 11:28:30;;;;;;;24.48;7.60;;;;;;;10.70;100.00;99313.16;5113684;28;20044;-81
2021/10/12 11:31:03;;;;;;;14.73;7.27;;;;;;;10.76;100.00;99317.03;5105192;28;20051;-80
2021/10/12 11:33:34;;;;;;;16.55;6.45;;;;;;;10.93;100.00;99313.16;5092808;28;20037;-81
2021/10/12 11:36:03;;;;;;;10.77;6.15;;;;;;;11.15;100.00;99313.28;5098959;28;20051;-81
2021/10/12 11:38:33;;;;;;;20.42;8.82;;;;;;;11.34;100.00;99301.88;5113409;28;20051;-81
2021/10/12 11:41:00;;;;;;;;;;;;;;;11.37;99.47;99313.44;5113956;28;20058;-81
2021/10/12 11:43:37;;;;;;;15.38;5.88;;;;;;;11.13;100.00;99294.44;5094350;28;20383;-81
2021/10/12 11:46:05;;;;;;;17.15;6.97;;;;;;;11.42;100.00;99294.66;5092891;28;20040;-81
2021/10/12 11:48:36;;;;;;;14.98;8.80;;;;;;;11.84;100.00;99282.22;5093450;27;20442;-81
2021/10/12 11:51:19;;;;;;;14.02;6.75;;;;;;;12.14;98.38;99274.03;5096170;28;20051;-81
2021/10/12 11:53:48;;;;;;;16.08;5.63;;;;;;;12.02;96.67;99270.94;5112629;28;20058;-81
2021/10/12 11:56:16;;;;;;;15.50;4.55;;;;;;;11.58;92.25;99271.84;5112794;28;20052;-81
2021/10/12 11:58:44;;;;;;;11.57;5.03;;;;;;;11.58;93.93;99264.50;5103168;28;20051;-81
2021/10/12 12:01:17;;;;;;;9.65;4.90;;;;;;;11.87;95.79;99258.16;5092574;28;20059;-81
2021/10/12 12:03:45;;;;;;;10.88;4.90;;;;;;;11.91;92.93;99249.59;5093264;28;20044;-81
2021/10/12 12:06:14;;;;;;;14.55;5.75;;;;;;;12.00;92.95;99243.91;5091765;28;20408;-81
2021/10/12 12:08:43;;;;;;;9.70;4.97;;;;;;;11.97;92.87;99249.72;5092316;28;20052;-81
2021/10/12 12:11:11;;;;;;;13.55;4.13;;;;;;;11.82;91.44;99235.28;5092824;28;20094;-81
2021/10/12 12:13:38;;;;;;;11.63;3.95;;;;;;;11.79;93.17;99239.22;5092371;28;20055;-81
2021/10/12 12:16:07;;;;;;;9.63;4.35;;;;;;;11.73;91.07;99245.44;5093025;28;20176;-81
2021/10/12 12:18:43;;;;;;;11.32;3.85;;;;;;;11.70;93.33;99229.47;5092720;28;20056;-81
2021/10/12 12:21:10;;;;;;;10.18;3.67;;;;;;;11.67;91.88;99233.41;5093110;28;20055;-81
2021/10/12 12:23:40;;;;;;;13.77;3.53;;;;;;;11.79;94.57;99228.31;5092570;28;20105;-81
2021/10/12 12:26:09;;;;;;;9.30;3.65;;;;;;;11.85;92.49;99229.44;5092400;28;20047;-81
2021/10/12 12:28:36;;;;;;;10.95;3.08;;;;;;;11.75;89.13;99228.91;5092206;28;20487;-81
2021/10/12 12:31:19;;;;;;;6.95;3.40;;;;;;;11.70;90.94;99229.47;5092296;28;20055;-81
2021/10/12 12:33:48;;;;;;;4.95;3.13;;;;;;;11.67;88.90;99222.53;5092100;28;20044;-81
2021/10/12 12:36:15;;;;;;;6.88;3.55;;;;;;;11.54;90.86;99216.91;5091200;28;20079;-81
2021/10/12 12:38:43;;;;;;;7.00;3.30;;;;;;;11.68;93.11;99224.22;5092045;28;20048;-81
2021/10/12 12:41:21;;;;;;;9.73;3.83;;;;;;;11.70;89.92;99229.47;5091922;28;20078;-81
2021/10/12 12:43:52;;;;;;;7.78;3.60;;;;;;;11.59;88.20;99236.25;5092261;28;20067;-81
2021/10/12 12:46:20;;;;;;;12.82;3.97;;;;;;;11.76;89.22;99228.72;5091649;28;20083;-81
2021/10/12 12:49:04;;;;;;;12.32;3.60;;;;;;;11.61;88.85;99214.28;5092598;28;20407;-81
2021/10/12 12:51:31;;;;;;;7.40;4.07;;;;;;;11.54;88.76;99233.25;5099554;28;20064;-81
2021/10/12 12:53:57;;;;;;;10.50;3.78;;;;;;;11.37;88.84;99221.72;5109501;28;20097;-81
2021/10/12 12:56:32;;;;;;;9.13;3.75;;;;;;;11.25;91.01;99221.34;5091866;28;20048;-81
2021/10/12 12:59:05;;;;;;;6.05;3.92;;;;;;;11.20;89.82;99207.47;5092985;28;20097;-81
2021/10/12 13:01:32;;;;;;;18.95;4.85;;;;;;;11.09;92.06;99216.91;5092055;28;20098;-81
2021/10/12 13:04:00;;;;;;;13.45;3.95;;;;;;;11.28;91.03;99201.09;5091963;28;20044;-84
2021/10/12 13:06:27;;;;;;;14.15;5.40;;;;;;;11.24;90.40;99211.47;5109437;28;20043;-86
2021/10/12 13:08:57;;;;;;;10.02;4.15;;;;;;;11.05;88.73;99198.44;5112750;28;20069;-86
2021/10/12 13:11:25;;;;;;;;;;;;;;;11.26;90.39;99217.59;5098163;28;20131;-86
2021/10/12 13:13:53;;;;;;;13.48;3.90;;;;;;;11.26;90.42;99208.56;5085641;28;20014;-86
2021/10/12 13:16:20;;;;;;;8.98;4.15;;;;;;;11.31;90.44;99197.97;5106313;28;20503;-86
2021/10/12 13:18:47;;;;;;;13.25;4.40;;;;;;;11.52;90.91;99222.53;5102158;28;20040;-86
2021/10/12 13:21:16;;;;;;;12.15;4.57;;;;;;;11.50;89.51;99216.44;5097859;28;20047;-86
2021/10/12 13:23:46;;;;;;;6.25;4.18;;;;;;;11.51;88.79;99200.94;5116441;28;20043;-85
2021/10/12 13:26:13;;;;;;;8.52;4.05;;;;;;;11.55;88.03;99215.88;5115819;28;20463;-86
2021/10/12 13:28:40;;;;;;;8.85;3.30;;;;;;;11.46;87.37;99193.34;5095123;28;20125;-85
2021/10/12 13:31:07;;;;;;;11.50;4.20;;;;;;;11.37;88.23;99193.66;5095080;28;20047;-86
2021/10/12 13:33:42;;;;;;;10.02;4.10;;;;;;;11.38;87.86;99188.03;5095630;27;20389;-86
2021/10/12 13:36:09;;;;;;;14.18;4.05;;;;;;;11.33;87.91;99187.72;5094502;28;20531;-86
2021/10/12 13:38:40;;;;;;;12.13;4.03;;;;;;;11.42;86.72;99200.22;5100116;28;20080;-86
2021/10/12 13:41:13;;;;;;;6.97;3.83;;;;;;;11.41;86.60;99184.94;5095463;28;20134;-86
2021/10/12 13:43:44;;;;;;;8.40;3.25;;;;;;;11.48;87.95;99179.56;5103655;28;20043;-86
2021/10/12 13:46:11;;;;;;;6.57;3.17;;;;;;;11.49;86.31;99181.25;5115523;28;20130;-86
2021/10/12 13:48:39;;;;;;;12.23;4.07;;;;;;;11.43;86.85;99184.75;5101451;28;20465;-85
2021/10/12 13:51:10;;;;;;;12.57;4.00;;;;;;;11.37;87.42;99167.28;5099194;28;20096;-85
2021/10/12 13:53:42;;;;;;;13.15;4.40;;;;;;;11.45;86.20;99186.22;5115637;28;20048;-86
2021/10/12 13:56:34;;;;;;;6.85;3.55;;;;;;;11.20;87.23;99184.84;5115006;28;20465;-86
2021/10/12 13:59:20;;;;;;;13.27;4.05;;;;;;;11.10;87.31;99196.00;5114362;27;20410;-86
2021/10/12 14:01:50;;;;;;;6.43;3.97;;;;;;;11.12;89.04;99183.91;5111596;27;20052;-86
2021/10/12 14:04:17;;;;;;;8.18;4.43;;;;;;;10.94;89.14;99178.84;5096221;27;20150;-86
2021/10/12 14:06:44;;;;;;;11.98;3.95;;;;;;;10.94;89.26;99178.84;5097154;28;20453;-86
2021/10/12 14:09:15;;;;;;;11.85;4.88;;;;;;;10.86;90.46;99170.78;5094833;28;20058;-86
2021/10/12 14:11:52;;;;;;;10.73;4.53;;;;;;;10.88;89.49;99179.56;5107053;27;20058;-86
2021/10/12 14:14:23;;;;;;;11.50;5.57;;;;;;;10.91;89.64;99181.09;5094589;28;20056;-86
2021/10/12 14:16:53;;;;;;;10.38;4.55;;;;;;;10.97;89.70;99170.31;5094091;28;20101;-86
2021/10/12 14:19:22;;;;;;;4.93;3.58;;;;;;;10.83;89.54;99157.53;5094881;28;20145;-86
2021/10/12 14:21:58;;;;;;;8.43;4.20;;;;;;;10.82;88.32;99163.16;5094365;28;20052;-86
2021/10/12 14:24:27;;;;;;;6.00;3.80;;;;;;;10.67;88.97;99149.56;5094463;28;20139;-85
2021/10/12 14:27:01;;;;;;;9.25;3.67;;;;;;;10.77;88.92;99158.28;5094679;28;20078;-86
2021/10/12 14:29:28;;;;;;;9.40;3.88;;;;;;;10.71;89.57;99156.31;5095068;28;20040;-86
2021/10/12 14:32:04;;;;;;;11.07;4.75;;;;;;;10.69;89.79;99148.34;5102626;28;20105;-86
2021/10/12 14:34:31;;;;;;;10.05;4.47;;;;;;;10.90;91.51;99158.50;5093578;28;20059;-85
2021/10/12 14:36:59;;;;;;;13.20;4.53;;;;;;;10.89;91.65;99147.81;5105818;27;20491;-85
2021/10/12 14:39:27;;;;;;;12.02;4.53;;;;;;;10.86;91.05;99154.44;5105424;28;20051;-85
2021/10/12 14:42:05;;;;;;;15.68;4.40;;;;;;;10.68;91.71;99143.09;5094733;27;20130;-85
2021/10/12 14:44:35;;;;;;;10.07;3.90;;;;;;;10.75;92.09;99149.50;5092988;28;20135;-85
2021/10/12 14:47:02;;;;;;;7.78;4.05;;;;;;;10.61;92.32;99132.13;5094799;27;20048;-85
2021/10/12 14:49:29;;;;;;;9.02;5.03;;;;;;;10.57;91.98;99144.41;5114048;28;20218;-85
2021/10/12 14:51:56;;;;;;;15.70;5.40;;;;;;;10.57;92.47;99152.56;5114516;28;20479;-85
2021/10/12 14:54:23;;;;;;;11.25;5.40;;;;;;;10.56;92.26;99154.41;5096182;28;20469;-85
2021/10/12 14:56:52;;;;;;;7.10;4.55;;;;;;;10.43;93.55;99135.19;5093562;28;20299;-85
2021/10/12 14:59:18;;;;;;;11.02;4.45;;;;;;;10.54;92.89;99164.66;5095614;28;20135;-86
2021/10/12 15:01:47;;;;;;;8.35;4.88;;;;;;;10.42;93.60;99138.94;5094575;28;20044;-83
2021/10/12 15:04:16;;;;;;;10.93;4.95;;;;;;;10.43;95.03;99155.06;5095528;28;20058;-85
2021/10/12 15:06:43;;;;;;;11.70;5.50;;;;;;;10.49;96.59;99145.31;5114168;28;20105;-84
2021/10/12 15:09:10;;;;;;;15.30;5.57;;;;;;;10.33;96.93;99131.84;5114872;28;20044;-85
2021/10/12 15:11:38;;;;;;;13.13;5.97;;;;;;;10.37;97.21;99141.34;5106668;28;20046;-85
2021/10/12 15:14:06;;;;;;;16.15;5.47;;;;;;;10.17;98.38;99127.41;5094393;28;20127;-85
2021/10/12 15:16:33;;;;;;;9.32;5.28;;;;;;;10.18;100.00;99135.38;5093817;28;20048;-85
2021/10/12 15:19:01;;;;;;;13.00;5.50;;;;;;;9.92;100.00;99114.88;5093487;28;20048;-86
2021/10/12 15:21:28;;;;;;;15.52;5.88;;;;;;;10.01;100.00;99131.09;5095855;27;20048;-84
2021/10/12 15:24:02;;;;;;;10.93;5.22;;;;;;;10.03;100.00;99135.34;5113638;28;20134;-85
2021/10/12 15:26:34;;;;;;;12.48;5.63;;;;;;;10.01;100.00;99114.81;5113232;27;20099;-83
2021/10/12 15:29:01;;;;;;;11.20;5.18;;;;;;;9.95;100.00;99129.97;5094467;28;20489;-83
2021/10/12 15:31:30;;;;;;;15.57;5.50;;;;;;;9.98;100.00;99113.31;5092254;28;20055;-84
2021/10/12 15:33:58;;;;;;;13.32;6.57;;;;;;;10.06;100.00;99120.56;5093344;28;20052;-84
2021/10/12 15:36:26;;;;;;;13.65;6.07;;;;;;;10.03;100.00;99119.03;5092306;28;20044;-84
2021/10/12 15:39:23;;;;;;;14.75;5.82;;;;;;;9.81;100.00;99109.88;5093242;28;20392;-84
2021/10/12 15:41:52;;;;;;;13.43;6.57;;;;;;;9.95;100.00;99121.84;5091574;28;20048;-85
2021/10/12 15:44:31;;;;;;;12.93;5.68;;;;;;;9.94;100.00;99119.31;5092040;28;20385;-84
2021/10/12 15:47:01;;;;;;;11.75;5.75;;;;;;;9.77;100.00;99108.56;5092721;28;20453;-85
2021/10/12 15:49:38;;;;;;;14.80;6.75;;;;;;;9.80;100.00;99097.34;5092916;28;20510;-85
2021/10/12 15:52:08;;;;;;;14.80;6.55;;;;;;;9.84;100.00;99112.22;5105109;28;20555;-85
2021/10/12 15:54:35;;;;;;;14.88;6.38;;;;;;;9.81;100.00;99103.59;5111506;27;20495;-84
2021/10/12 15:57:02;;;;;;;11.35;6.13;;;;;;;9.71;100.00;99098.41;5111739;28;20039;-84
2021/10/12 15:59:31;;;;;;;15.90;6.07;;;;;;;9.90;100.00;99126.94;5105227;28;20484;-84
2021/10/12 16:02:07;;;;;;;9.95;6.47;;;;;;;9.80;100.00;99115.47;5093333;28;20491;-84
2021/10/12 16:04:34;;;;;;;24.17;14.30;;;;;;;9.76;100.00;99109.56;5092512;28;20051;-84
2021/10/12 16:07:01;;;;;;;21.23;12.38;;;;;;;9.69;100.00;99106.72;5091729;28;20052;-84
2021/10/12 16:09:29;;;;;;;18.23;13.15;;;;;;;9.77;100.00;99119.44;5092521;28;20484;-85
2021/10/12 16:11:56;;;;;;;17.67;13.35;;;;;;;9.75;100.00;99116.03;5107637;28;20047;-83
2021/10/12 16:14:38;;;;;;;21.38;11.18;;;;;;;9.75;100.00;99102.44;5112023;28;20048;-83
2021/10/12 16:17:16;;;;;;;17.55;7.63;;;;;;;9.65;100.00;99112.69;5111696;28;20047;-83
2021/10/12 16:22:30;;;;;;;12.63;6.20;;;;;;;9.71;100.00;99130.97;5070864;28;20044;-83
2021/10/12 16:24:56;;;;;;;12.18;6.00;;;;;;;9.55;100.00;99108.34;5112036;28;20093;-83
2021/10/12 16:27:23;;;;;;;13.65;6.28;;;;;;;9.65;100.00;99107.28;5095741;28;20044;-82
2021/10/12 16:29:50;;;;;;;14.77;6.80;;;;;;;9.65;100.00;99099.13;5092192;28;20414;-82
2021/10/12 16:32:19;;;;;;;18.05;9.30;;;;;;;9.70;100.00;99119.28;5090859;28;20123;-82
2021/10/12 16:34:53;;;;;;;27.98;14.55;;;;;;;9.60;100.00;99123.25;5091829;28;20105;-84
2021/10/12 16:37:20;;;;;;;21.60;10.90;;;;;;;9.47;100.00;99105.72;5091516;28;20507;-82
2021/10/12 16:39:49;;;;;;;18.10;9.27;;;;;;;9.61;100.00;99127.69;5092059;28;20048;-82
2021/10/12 16:42:17;;;;;;;11.80;4.82;;;;;;;9.39;100.00;99130.16;5091117;28;20078;-83
2021/10/12 16:44:44;;;;;;;14.23;5.78;;;;;;;9.43;100.00;99123.38;5103727;28;20055;-82
2021/10/12 16:47:15;;;;;;;9.15;4.88;;;;;;;9.24;100.00;99108.38;5106157;28;20488;-83
2021/10/12 16:49:43;;;;;;;11.90;5.28;;;;;;;9.34;100.00;99125.28;5091674;28;20060;-80
2021/10/12 16:52:11;;;;;;;11.90;4.88;;;;;;;9.30;100.00;99120.38;5104509;28;20075;-84
2021/10/12 16:54:38;;;;;;;15.43;5.68;;;;;;;9.33;100.00;99125.44;5103621;28;20055;-84
2021/10/12 16:57:05;;;;;;;9.13;4.50;;;;;;;9.28;100.00;99126.00;5094883;28;20055;-83
2021/10/12 16:59:32;;;;;;;13.05;5.38;;;;;;;9.36;100.00;99135.94;5108134;28;20078;-83
2021/10/12 17:02:00;;;;;;;11.52;4.88;;;;;;;9.29;100.00;99121.41;5116413;27;20089;-82
2021/10/12 17:04:28;;;;;;;14.40;4.80;;;;;;;9.34;100.00;99140.72;5101094;28;20055;-83
2021/10/12 17:06:57;;;;;;;15.88;4.90;;;;;;;9.32;100.00;99146.31;5095484;28;20044;-82
2021/10/12 17:09:24;;;;;;;12.70;5.53;;;;;;;9.28;100.00;99141.44;5095644;28;20109;-82
2021/10/12 17:11:53;;;;;;;13.18;5.30;;;;;;;9.04;100.00;99118.81;5121185;27;20039;-83
2021/10/12 17:14:22;;;;;;;8.30;3.92;;;;;;;9.00;100.00;99114.75;5136273;27;20143;-82
2021/10/12 17:16:50;;;;;;;9.80;5.60;;;;;;;9.02;100.00;99121.69;5136333;27;20043;-84
2021/10/12 17:19:19;;;;;;;14.25;4.35;;;;;;;8.96;100.00;99113.44;5132788;27;20055;-85
2021/10/12 17:21:58;;;;;;;10.52;4.13;;;;;;;9.04;100.00;99116.94;5095020;28;20559;-85
2021/10/12 17:28:03;;;;;;;14.82;5.22;;;;;;;9.01;100.00;99113.75;5093647;28;20075;-85
2021/10/12 17:30:30;;;;;;;9.60;4.68;;;;;;;8.98;100.00;99111.38;5113271;28;20086;-85
2021/10/12 17:32:57;;;;;;;14.25;5.00;;;;;;;9.11;100.00;99127.94;5110619;28;20062;-84
2021/10/12 17:35:28;;;;;;;15.50;4.72;;;;;;;9.06;100.00;99135.75;5105551;28;20052;-85
2021/10/12 17:38:06;;;;;;;15.38;4.90;;;;;;;9.02;100.00;99123.56;5099375;28;20407;-85
2021/10/12 17:40:38;;;;;;;11.57;4.45;;;;;;;9.11;100.00;99137.91;5094330;27;20094;-85
2021/10/12 17:43:32;;;;;;;9.48;4.10;;;;;;;8.99;100.00;99122.06;5105247;28;20048;-85
2021/10/12 17:46:05;;;;;;;11.45;4.47;;;;;;;9.13;100.00;99133.19;5093357;28;20040;-85
2021/10/12 17:48:42;;;;;;;12.93;4.50;;;;;;;9.13;100.00;99125.06;5099509;28;20060;-85
2021/10/12 17:51:13;;;;;;;11.20;4.28;;;;;;;9.04;100.00;99126.94;5096597;27;20055;-84
2021/10/12 17:53:51;;;;;;;13.80;5.57;;;;;;;9.02;100.00;99137.13;5102176;28;20048;-84
2021/10/12 17:56:18;;;;;;;10.40;4.97;;;;;;;9.04;100.00;99137.78;5103169;27;20109;-84
2021/10/12 17:58:48;;;;;;;12.60;5.78;;;;;;;9.10;100.00;99126.25;5101889;28;20079;-85
2021/10/12 18:01:27;;;;;;;11.55;5.07;;;;;;;9.06;100.00;99122.19;5093786;28;20411;-84
2021/10/12 18:04:01;;;;;;;14.38;5.70;;;;;;;9.02;100.00;99119.00;5107235;28;20439;-84
2021/10/12 18:06:38;;;;;;;;;;;;;;;;;;;;;
2021/10/12 18:09:06;;;;;;;9.05;4.75;;;;;;;9.02;100.00;99131.72;5093843;28;20059;-84
2021/10/12 18:11:50;;;;;;;14.40;5.05;;;;;;;8.94;100.00;99126.31;5100068;28;20047;-84
2021/10/12 18:14:19;;;;;;;15.75;5.40;;;;;;;8.96;100.00;99124.28;5098923;27;20059;-85